sensor_id;sensor_type;location;lat;lon;timestamp;pressure;altitude;pressure_sealevel;temperature;humidity
1694;BME280;71975;47.068;15.408;2024-01-06T00:00:55;96153.38;;;7.62;69.59
1694;BME280;71975;47.068;15.408;2024-01-06T00:06:00;96154.63;;;7.57;69.76
1694;BME280;71975;47.068;15.408;2024-01-06T00:11:03;96151.13;;;7.60;69.30
1694;BME280;71975;47.068;15.408;2024-01-06T00:16:06;96147.19;;;7.65;69.79
1694;BME280;71975;47.068;15.408;2024-01-06T00:21:11;96151.03;;;7.64;69.68
1694;BME280;71975;47.068;15.408;2024-01-06T00:26:13;96139.50;;;7.63;69.65
1694;BME280;71975;47.068;15.408;2024-01-06T00:31:17;96141.19;;;7.57;69.93
1694;BME280;71975;47.068;15.408;2024-01-06T00:36:21;96149.72;;;7.72;68.84
1694;BME280;71975;47.068;15.408;2024-01-06T00:41:24;96152.31;;;7.75;68.76
1694;BME280;71975;47.068;15.408;2024-01-06T00:46:27;96145.44;;;7.74;69.56
1694;BME280;71975;47.068;15.408;2024-01-06T00:51:32;96139.34;;;7.70;68.95
1694;BME280;71975;47.068;15.408;2024-01-06T00:56:38;96136.59;;;7.74;69.10
1694;BME280;71975;47.068;15.408;2024-01-06T01:01:43;96126.59;;;7.74;68.79
1694;BME280;71975;47.068;15.408;2024-01-06T01:06:48;96126.84;;;7.80;68.97
1694;BME280;71975;47.068;15.408;2024-01-06T01:11:51;96120.09;;;7.72;68.96
1694;BME280;71975;47.068;15.408;2024-01-06T01:16:54;96122.03;;;7.71;68.67
1694;BME280;71975;47.068;15.408;2024-01-06T01:21:58;96119.31;;;7.71;68.91
1694;BME280;71975;47.068;15.408;2024-01-06T01:27:01;96117.13;;;7.66;69.39
1694;BME280;71975;47.068;15.408;2024-01-06T01:32:05;96113.13;;;7.74;69.22
1694;BME280;71975;47.068;15.408;2024-01-06T01:37:10;96102.41;;;7.71;68.95
1694;BME280;71975;47.068;15.408;2024-01-06T01:42:13;96097.84;;;7.68;69.75
1694;BME280;71975;47.068;15.408;2024-01-06T01:47:16;96083.44;;;7.58;69.82
1694;BME280;71975;47.068;15.408;2024-01-06T01:52:21;96081.63;;;7.71;69.31
1694;BME280;71975;47.068;15.408;2024-01-06T01:57:25;96080.09;;;7.70;70.35
1694;BME280;71975;47.068;15.408;2024-01-06T02:02:28;96058.47;;;7.74;70.22
1694;BME280;71975;47.068;15.408;2024-01-06T02:07:32;96051.56;;;7.73;70.96
1694;BME280;71975;47.068;15.408;2024-01-06T02:12:35;96046.53;;;7.75;70.83
1694;BME280;71975;47.068;15.408;2024-01-06T02:17:38;96049.38;;;7.68;71.04
1694;BME280;71975;47.068;15.408;2024-01-06T02:22:43;96040.63;;;7.64;70.91
1694;BME280;71975;47.068;15.408;2024-01-06T02:27:46;96046.13;;;7.76;70.90
1694;BME280;71975;47.068;15.408;2024-01-06T02:32:49;96027.00;;;7.71;70.99
1694;BME280;71975;47.068;15.408;2024-01-06T02:37:54;96030.38;;;7.75;70.06
1694;BME280;71975;47.068;15.408;2024-01-06T02:42:56;96026.16;;;7.74;70.00
1694;BME280;71975;47.068;15.408;2024-01-06T02:47:59;96025.50;;;7.70;70.95
1694;BME280;71975;47.068;15.408;2024-01-06T02:53:04;96023.03;;;7.75;70.66
1694;BME280;71975;47.068;15.408;2024-01-06T02:58:07;96019.78;;;7.84;69.31
1694;BME280;71975;47.068;15.408;2024-01-06T03:03:10;96021.03;;;7.79;70.05
1694;BME280;71975;47.068;15.408;2024-01-06T03:08:14;96029.13;;;7.79;70.56
1694;BME280;71975;47.068;15.408;2024-01-06T03:13:17;96034.84;;;7.81;70.30
1694;BME280;71975;47.068;15.408;2024-01-06T03:18:20;96025.22;;;7.80;70.00
1694;BME280;71975;47.068;15.408;2024-01-06T03:23:25;96026.09;;;7.77;70.24
1694;BME280;71975;47.068;15.408;2024-01-06T03:28:27;96028.44;;;7.75;70.12
1694;BME280;71975;47.068;15.408;2024-01-06T03:33:30;96022.19;;;7.78;70.09
1694;BME280;71975;47.068;15.408;2024-01-06T03:38:35;96012.63;;;7.77;70.99
1694;BME280;71975;47.068;15.408;2024-01-06T03:43:38;96015.47;;;7.86;69.73
1694;BME280;71975;47.068;15.408;2024-01-06T03:48:41;96019.59;;;7.91;69.78
1694;BME280;71975;47.068;15.408;2024-01-06T03:53:45;96022.38;;;7.87;69.75
1694;BME280;71975;47.068;15.408;2024-01-06T03:58:48;96023.56;;;7.86;69.48
1694;BME280;71975;47.068;15.408;2024-01-06T04:03:51;96034.16;;;7.93;69.70
1694;BME280;71975;47.068;15.408;2024-01-06T04:08:55;96037.38;;;7.88;69.67
1694;BME280;71975;47.068;15.408;2024-01-06T04:13:58;96035.16;;;7.83;70.32
1694;BME280;71975;47.068;15.408;2024-01-06T04:19:01;96030.81;;;7.89;70.02
1694;BME280;71975;47.068;15.408;2024-01-06T04:24:06;96031.31;;;7.84;70.26
1694;BME280;71975;47.068;15.408;2024-01-06T04:29:09;96025.81;;;7.88;70.06
1694;BME280;71975;47.068;15.408;2024-01-06T04:34:12;96028.13;;;7.89;70.54
1694;BME280;71975;47.068;15.408;2024-01-06T04:39:17;96032.75;;;7.89;71.25
1694;BME280;71975;47.068;15.408;2024-01-06T04:44:20;96036.28;;;7.86;72.27
1694;BME280;71975;47.068;15.408;2024-01-06T04:49:23;96034.84;;;7.81;72.12
1694;BME280;71975;47.068;15.408;2024-01-06T04:54:28;96042.25;;;7.77;72.27
1694;BME280;71975;47.068;15.408;2024-01-06T04:59:31;96029.88;;;7.80;72.39
1694;BME280;71975;47.068;15.408;2024-01-06T05:04:33;96045.28;;;7.79;74.01
1694;BME280;71975;47.068;15.408;2024-01-06T05:09:38;96048.38;;;7.78;74.60
1694;BME280;71975;47.068;15.408;2024-01-06T05:14:41;96051.56;;;7.73;75.54
1694;BME280;71975;47.068;15.408;2024-01-06T05:19:43;96037.00;;;7.70;76.85
1694;BME280;71975;47.068;15.408;2024-01-06T05:24:48;96040.78;;;7.73;77.08
1694;BME280;71975;47.068;15.408;2024-01-06T05:29:54;96047.72;;;7.74;77.74
1694;BME280;71975;47.068;15.408;2024-01-06T05:34:57;96049.13;;;7.78;77.22
1694;BME280;71975;47.068;15.408;2024-01-06T05:40:02;96043.19;;;7.87;76.41
1694;BME280;71975;47.068;15.408;2024-01-06T05:45:10;96054.69;;;7.71;78.56
1694;BME280;71975;47.068;15.408;2024-01-06T17:43:09;96107.78;;;8.23;81.66
1694;BME280;71975;47.068;15.408;2024-01-06T17:48:14;96107.84;;;8.03;81.78
1694;BME280;71975;47.068;15.408;2024-01-06T17:53:17;96108.06;;;7.92;82.14
1694;BME280;71975;47.068;15.408;2024-01-06T17:58:21;96110.25;;;7.81;82.71
1694;BME280;71975;47.068;15.408;2024-01-06T18:03:24;96110.69;;;7.80;82.13
1694;BME280;71975;47.068;15.408;2024-01-06T18:08:27;96094.44;;;7.83;81.99
1694;BME280;71975;47.068;15.408;2024-01-06T18:13:31;96103.34;;;7.80;81.51
1694;BME280;71975;47.068;15.408;2024-01-06T18:18:34;96108.25;;;7.85;81.01
1694;BME280;71975;47.068;15.408;2024-01-06T18:23:37;96106.19;;;7.73;81.88
1694;BME280;71975;47.068;15.408;2024-01-06T18:28:42;96096.41;;;7.63;82.78
1694;BME280;71975;47.068;15.408;2024-01-06T18:33:45;96101.78;;;7.63;83.97
1694;BME280;71975;47.068;15.408;2024-01-06T18:38:49;96089.44;;;7.66;82.48
1694;BME280;71975;47.068;15.408;2024-01-06T18:43:54;96096.53;;;7.76;81.65
1694;BME280;71975;47.068;15.408;2024-01-06T18:48:57;96087.53;;;7.82;82.04
1694;BME280;71975;47.068;15.408;2024-01-06T18:54:00;96090.13;;;7.70;81.01
1694;BME280;71975;47.068;15.408;2024-01-06T18:59:04;96090.03;;;7.73;81.03
1694;BME280;71975;47.068;15.408;2024-01-06T19:04:09;96094.78;;;7.85;80.44
1694;BME280;71975;47.068;15.408;2024-01-06T19:09:12;96087.84;;;7.68;80.01
1694;BME280;71975;47.068;15.408;2024-01-06T19:14:17;96089.63;;;7.75;80.87
1694;BME280;71975;47.068;15.408;2024-01-06T19:19:20;96077.19;;;7.81;78.96
1694;BME280;71975;47.068;15.408;2024-01-06T19:24:23;96087.72;;;7.91;78.31
1694;BME280;71975;47.068;15.408;2024-01-06T19:29:38;96083.66;;;7.83;79.82
1694;BME280;71975;47.068;15.408;2024-01-06T19:34:44;96094.22;;;7.94;77.85
1694;BME280;71975;47.068;15.408;2024-01-06T19:39:51;96090.91;;;7.86;79.35
1694;BME280;71975;47.068;15.408;2024-01-06T19:44:55;96097.41;;;7.89;79.61
1694;BME280;71975;47.068;15.408;2024-01-06T19:49:58;96091.47;;;7.78;80.77
1694;BME280;71975;47.068;15.408;2024-01-06T19:55:01;96096.53;;;7.76;79.55
1694;BME280;71975;47.068;15.408;2024-01-06T20:00:08;96101.34;;;7.84;79.31
1694;BME280;71975;47.068;15.408;2024-01-06T20:05:11;96097.47;;;7.85;79.65
1694;BME280;71975;47.068;15.408;2024-01-06T20:10:14;96086.94;;;7.75;80.10
1694;BME280;71975;47.068;15.408;2024-01-06T20:15:18;96086.84;;;7.78;79.76
1694;BME280;71975;47.068;15.408;2024-01-06T20:20:21;96089.88;;;7.80;79.52
1694;BME280;71975;47.068;15.408;2024-01-06T20:25:24;96090.97;;;7.67;81.47
1694;BME280;71975;47.068;15.408;2024-01-06T20:30:29;96086.19;;;7.74;81.31
1694;BME280;71975;47.068;15.408;2024-01-06T20:35:33;96081.88;;;7.77;81.08
1694;BME280;71975;47.068;15.408;2024-01-06T20:40:36;96079.19;;;7.77;80.33
1694;BME280;71975;47.068;15.408;2024-01-06T20:45:40;96068.50;;;7.73;80.55
1694;BME280;71975;47.068;15.408;2024-01-06T20:50:46;96071.28;;;7.70;80.14
1694;BME280;71975;47.068;15.408;2024-01-06T20:55:49;96065.97;;;7.66;81.21
1694;BME280;71975;47.068;15.408;2024-01-06T21:00:53;96062.59;;;7.62;81.74
1694;BME280;71975;47.068;15.408;2024-01-06T21:05:56;96061.06;;;7.61;81.24
1694;BME280;71975;47.068;15.408;2024-01-06T21:11:00;96047.97;;;7.79;89.26
1694;BME280;71975;47.068;15.408;2024-01-06T21:16:05;96046.47;;;8.43;83.29
1694;BME280;71975;47.068;15.408;2024-01-06T21:21:08;96044.84;;;7.97;78.19
1694;BME280;71975;47.068;15.408;2024-01-06T21:26:11;96041.31;;;7.84;78.91
1694;BME280;71975;47.068;15.408;2024-01-06T21:31:15;96043.25;;;7.83;78.33
1694;BME280;71975;47.068;15.408;2024-01-06T21:36:20;96042.31;;;7.74;78.32
1694;BME280;71975;47.068;15.408;2024-01-06T21:41:23;96056.88;;;7.76;77.85
1694;BME280;71975;47.068;15.408;2024-01-06T21:46:28;96040.72;;;7.76;77.66
1694;BME280;71975;47.068;15.408;2024-01-06T21:51:31;96043.25;;;7.67;76.83
1694;BME280;71975;47.068;15.408;2024-01-06T21:56:34;96040.72;;;7.76;76.45
1694;BME280;71975;47.068;15.408;2024-01-06T22:01:38;96036.50;;;7.75;76.29
1694;BME280;71975;47.068;15.408;2024-01-06T22:06:42;96025.94;;;7.84;75.91
1694;BME280;71975;47.068;15.408;2024-01-06T22:11:45;96030.63;;;7.80;75.48
1694;BME280;71975;47.068;15.408;2024-01-06T22:16:50;96032.66;;;7.76;75.39
1694;BME280;71975;47.068;15.408;2024-01-06T22:21:53;96028.94;;;7.86;75.14
1694;BME280;71975;47.068;15.408;2024-01-06T22:26:56;96024.22;;;7.90;75.06
1694;BME280;71975;47.068;15.408;2024-01-06T22:32:00;96022.06;;;8.01;73.96
1694;BME280;71975;47.068;15.408;2024-01-06T22:37:03;96022.72;;;7.89;74.91
1694;BME280;71975;47.068;15.408;2024-01-06T22:42:06;96030.63;;;7.80;76.42
1694;BME280;71975;47.068;15.408;2024-01-06T22:47:11;96026.09;;;7.77;75.81
1694;BME280;71975;47.068;15.408;2024-01-06T22:52:14;96023.13;;;7.88;74.92
1694;BME280;71975;47.068;15.408;2024-01-06T22:57:17;96014.47;;;7.80;74.35
1694;BME280;71975;47.068;15.408;2024-01-06T23:02:21;96020.00;;;7.73;75.38
1694;BME280;71975;47.068;15.408;2024-01-06T23:07:24;96004.19;;;7.75;74.53
1694;BME280;71975;47.068;15.408;2024-01-06T23:12:27;96002.69;;;7.90;73.65
1694;BME280;71975;47.068;15.408;2024-01-06T23:17:31;96005.22;;;7.81;73.98
1694;BME280;71975;47.068;15.408;2024-01-06T23:22:34;96010.59;;;7.81;73.73
1694;BME280;71975;47.068;15.408;2024-01-06T23:27:37;96000.31;;;7.76;73.37
1694;BME280;71975;47.068;15.408;2024-01-06T23:32:42;95982.81;;;7.68;73.13
1694;BME280;71975;47.068;15.408;2024-01-06T23:37:45;95986.84;;;7.76;72.21
1694;BME280;71975;47.068;15.408;2024-01-06T23:42:52;95990.72;;;7.75;73.35
1694;BME280;71975;47.068;15.408;2024-01-06T23:47:56;95982.97;;;7.61;72.88
1694;BME280;71975;47.068;15.408;2024-01-06T23:53:00;95973.72;;;7.62;72.47
1694;BME280;71975;47.068;15.408;2024-01-06T23:58:03;95985.69;;;7.77;72.07
